Alborn, MN (55702)

1:21 AM CDT on July 28, 2016 (GMT -0500)
Twig, MN | | Change Station

Elev 1440 ft 46.86 °N, 92.34 °W | Updated 3 minutes ago

Clear
Clear
55.8 °F
Feels Like 55.8 °F
N
0.0
Wind Variable Wind from South

Today
High -- | Low -- °F
--% Chance of Precip.
Yesterday
High -- | Low -- °F
Precip. -- in
Pressure 30.06 in
Visibility 10.0 miles
Clouds Clear
Dew Point 56 °F
Humidity 99%
Rainfall 0.00 in
Snow Depth Not available.
5:45 AM 8:47 PM
Waning Crescent, 35% visible
METAR KCOQ 280615Z AUTO 00000KT 10SM CLR 13/12 A3006 RMK AO2
Pressure 30.06 in
Visibility 10.0 miles
Clouds Clear
Dew Point 56 °F
Humidity 99%
Rainfall 0.00 in
Snow Depth Not available.
5:45 AM 8:47 PM
Waning Crescent, 35% visible
METAR KCOQ 280615Z AUTO 00000KT 10SM CLR 13/12 A3006 RMK AO2

10-Day Weather Forecast

Almanac

Astronomy

Jul. 28, 2016 Rise Set
Actual Time
Civil Twilight
Nautical Twilight
Astronomical Twilight
Moon
Length of Visible Light
Length of Day
Tomorrow will be .
, % of the Moon is Illuminated

Today's Extremes

State Highs State Lows

Community

WunderPhotos

Upload Photos

1,928,064 photos uploaded!

WunderBlog® & News

Nearby

Air Quality

  Air Quality AQ Index Pollutant
Not available.

Snow Depth

Station Depth Elevation

Earthquake Activity

City Distance Mag. Time & Date
Minimum magnitude displayed is 2.5.

Coastal Water Temperatures

Place Temperature

Stations

Nearby Weather Stations

Station Location Temp. Windchill Dew Point Humidity Wind Precip. Elev Updated Type
                   

Watches & Warnings

There are currently no watches in effect.